GOGK

Kolda Airport

Kolda, Senegal
METAR GOGK 171200Z 04004KT 9999 BKN016TCU 32/26 Q1015
Observed Flight Rules
Aug-17 @ 12:00 UTC (5 hours ago) Marginal Visual Flight Rules
Wind Visibility Clouds
40° at 4 knots 10,000+ meters
  • Broken at 1,600' AGL
Temperatures Readings
Current 32°C / 90°F
Dewpoint 26°C / 79°F
Humidity 71%
Altimeter 29.97" Hg
Pressure 1015 hPa
Elevation 10
METAR GOGK 171200Z 04004KT 9999 BKN016TCU 32/26 Q1015
Observed Flight Rules
Aug-17 @ 12:00 UTC
(5 hours ago)
MVFR
Wind Visibility
40° at 4 knots 10,000+ meters
Clouds
  • Broken at 1,600' AGL
Temperature Dewpoint
32°C / 90°F 26°C / 79°F
Humidity Altimeter Pressure
71% 29.97" Hg 1015 hPa